sensor_id;sensor_type;location;lat;lon;timestamp;temperature;humidity
33903;DHT22;20194;50.950;5.346;2022-11-20T00:00:29;5.10;20.10
33903;DHT22;20194;50.950;5.346;2022-11-20T00:02:54;5.20;22.00
33903;DHT22;20194;50.950;5.346;2022-11-20T00:05:20;5.20;19.60
33903;DHT22;20194;50.950;5.346;2022-11-20T00:07:46;5.30;21.10
33903;DHT22;20194;50.950;5.346;2022-11-20T00:10:12;5.30;20.00
33903;DHT22;20194;50.950;5.346;2022-11-20T00:12:37;5.40;22.10
33903;DHT22;20194;50.950;5.346;2022-11-20T00:15:03;5.30;21.70
33903;DHT22;20194;50.950;5.346;2022-11-20T00:17:29;5.30;23.90
33903;DHT22;20194;50.950;5.346;2022-11-20T00:19:55;5.30;22.40
33903;DHT22;20194;50.950;5.346;2022-11-20T00:22:21;5.40;21.70
33903;DHT22;20194;50.950;5.346;2022-11-20T00:24:47;5.50;22.90
33903;DHT22;20194;50.950;5.346;2022-11-20T00:27:12;5.50;19.80
33903;DHT22;20194;50.950;5.346;2022-11-20T00:29:38;5.50;19.50
33903;DHT22;20194;50.950;5.346;2022-11-20T00:32:04;5.50;19.80
33903;DHT22;20194;50.950;5.346;2022-11-20T00:34:30;5.60;18.90
33903;DHT22;20194;50.950;5.346;2022-11-20T00:36:56;5.50;17.10
33903;DHT22;20194;50.950;5.346;2022-11-20T00:39:22;5.30;20.80
33903;DHT22;20194;50.950;5.346;2022-11-20T00:41:47;5.20;23.20
33903;DHT22;20194;50.950;5.346;2022-11-20T00:44:13;5.30;24.80
33903;DHT22;20194;50.950;5.346;2022-11-20T00:46:39;5.40;21.40
33903;DHT22;20194;50.950;5.346;2022-11-20T00:49:04;5.50;17.90
33903;DHT22;20194;50.950;5.346;2022-11-20T00:51:30;5.40;22.40
33903;DHT22;20194;50.950;5.346;2022-11-20T00:53:59;5.50;19.70
33903;DHT22;20194;50.950;5.346;2022-11-20T00:56:25;5.50;21.00
33903;DHT22;20194;50.950;5.346;2022-11-20T00:58:51;5.40;22.80
33903;DHT22;20194;50.950;5.346;2022-11-20T01:01:19;5.50;22.90
33903;DHT22;20194;50.950;5.346;2022-11-20T01:03:48;5.70;22.20
33903;DHT22;20194;50.950;5.346;2022-11-20T01:08:41;5.50;25.30
33903;DHT22;20194;50.950;5.346;2022-11-20T01:11:10;5.50;24.40
33903;DHT22;20194;50.950;5.346;2022-11-20T01:13:36;5.60;23.00
33903;DHT22;20194;50.950;5.346;2022-11-20T01:16:21;5.70;22.30
33903;DHT22;20194;50.950;5.346;2022-11-20T01:18:50;5.90;22.40
33903;DHT22;20194;50.950;5.346;2022-11-20T01:21:18;6.00;18.90
33903;DHT22;20194;50.950;5.346;2022-11-20T01:23:45;5.90;16.20
33903;DHT22;20194;50.950;5.346;2022-11-20T01:26:14;5.80;17.40
33903;DHT22;20194;50.950;5.346;2022-11-20T01:28:40;5.90;19.30
33903;DHT22;20194;50.950;5.346;2022-11-20T01:31:19;5.90;17.50
33903;DHT22;20194;50.950;5.346;2022-11-20T01:33:46;5.80;19.10
33903;DHT22;20194;50.950;5.346;2022-11-20T01:36:13;5.70;20.20
33903;DHT22;20194;50.950;5.346;2022-11-20T01:38:38;5.60;22.10
33903;DHT22;20194;50.950;5.346;2022-11-20T01:41:05;5.70;21.90
33903;DHT22;20194;50.950;5.346;2022-11-20T01:43:31;5.80;20.70
33903;DHT22;20194;50.950;5.346;2022-11-20T01:46:13;5.80;18.40
33903;DHT22;20194;50.950;5.346;2022-11-20T01:48:51;5.60;21.30
33903;DHT22;20194;50.950;5.346;2022-11-20T01:51:26;5.80;19.90
33903;DHT22;20194;50.950;5.346;2022-11-20T01:53:54;5.90;19.00
33903;DHT22;20194;50.950;5.346;2022-11-20T01:56:21;6.00;17.60
33903;DHT22;20194;50.950;5.346;2022-11-20T01:58:51;6.00;16.00
33903;DHT22;20194;50.950;5.346;2022-11-20T02:01:18;6.10;14.90
33903;DHT22;20194;50.950;5.346;2022-11-20T02:03:44;6.10;13.90
33903;DHT22;20194;50.950;5.346;2022-11-20T02:06:29;6.10;14.70
33903;DHT22;20194;50.950;5.346;2022-11-20T02:08:55;6.20;13.00
33903;DHT22;20194;50.950;5.346;2022-11-20T02:11:21;6.20;12.30
33903;DHT22;20194;50.950;5.346;2022-11-20T02:13:48;6.20;11.60
33903;DHT22;20194;50.950;5.346;2022-11-20T02:16:17;6.20;12.40
33903;DHT22;20194;50.950;5.346;2022-11-20T02:18:44;6.20;12.60
33903;DHT22;20194;50.950;5.346;2022-11-20T02:21:37;6.20;13.10
33903;DHT22;20194;50.950;5.346;2022-11-20T02:27:01;6.30;12.30
33903;DHT22;20194;50.950;5.346;2022-11-20T02:29:44;6.30;10.60
33903;DHT22;20194;50.950;5.346;2022-11-20T02:32:38;6.20;12.80
33903;DHT22;20194;50.950;5.346;2022-11-20T02:35:09;6.20;10.40
33903;DHT22;20194;50.950;5.346;2022-11-20T02:37:38;6.10;15.00
33903;DHT22;20194;50.950;5.346;2022-11-20T02:40:05;6.20;14.40
33903;DHT22;20194;50.950;5.346;2022-11-20T02:42:31;6.10;13.70
33903;DHT22;20194;50.950;5.346;2022-11-20T02:44:57;6.20;15.30
33903;DHT22;20194;50.950;5.346;2022-11-20T02:47:22;6.00;17.80
33903;DHT22;20194;50.950;5.346;2022-11-20T02:49:48;6.00;17.80
33903;DHT22;20194;50.950;5.346;2022-11-20T02:52:14;5.80;19.00
33903;DHT22;20194;50.950;5.346;2022-11-20T02:54:39;5.90;20.30
33903;DHT22;20194;50.950;5.346;2022-11-20T02:57:05;6.00;19.30
33903;DHT22;20194;50.950;5.346;2022-11-20T02:59:30;6.00;18.50
33903;DHT22;20194;50.950;5.346;2022-11-20T03:01:56;6.10;16.20
33903;DHT22;20194;50.950;5.346;2022-11-20T03:04:22;5.90;18.80
33903;DHT22;20194;50.950;5.346;2022-11-20T03:06:48;5.90;19.50
33903;DHT22;20194;50.950;5.346;2022-11-20T03:09:13;5.90;19.40
33903;DHT22;20194;50.950;5.346;2022-11-20T03:11:39;5.90;18.00
33903;DHT22;20194;50.950;5.346;2022-11-20T03:14:05;5.90;18.80
33903;DHT22;20194;50.950;5.346;2022-11-20T03:16:32;6.00;16.10
33903;DHT22;20194;50.950;5.346;2022-11-20T03:18:59;6.00;17.10
33903;DHT22;20194;50.950;5.346;2022-11-20T03:21:24;6.00;18.00
33903;DHT22;20194;50.950;5.346;2022-11-20T03:23:50;6.00;13.10
33903;DHT22;20194;50.950;5.346;2022-11-20T03:26:18;6.00;15.90
33903;DHT22;20194;50.950;5.346;2022-11-20T03:28:50;5.90;16.20
33903;DHT22;20194;50.950;5.346;2022-11-20T03:31:18;6.00;12.90
33903;DHT22;20194;50.950;5.346;2022-11-20T03:33:44;5.90;16.20
33903;DHT22;20194;50.950;5.346;2022-11-20T03:36:12;6.00;14.60
33903;DHT22;20194;50.950;5.346;2022-11-20T03:38:38;6.00;13.90
33903;DHT22;20194;50.950;5.346;2022-11-20T03:41:07;6.10;10.20
33903;DHT22;20194;50.950;5.346;2022-11-20T03:43:33;6.00;10.80
33903;DHT22;20194;50.950;5.346;2022-11-20T03:45:59;6.00;13.10
33903;DHT22;20194;50.950;5.346;2022-11-20T03:48:25;6.10;11.70
33903;DHT22;20194;50.950;5.346;2022-11-20T03:50:52;6.10;9.80
33903;DHT22;20194;50.950;5.346;2022-11-20T03:53:19;6.10;10.80
33903;DHT22;20194;50.950;5.346;2022-11-20T03:55:50;6.10;7.60
33903;DHT22;20194;50.950;5.346;2022-11-20T03:58:16;6.20;9.10
33903;DHT22;20194;50.950;5.346;2022-11-20T04:00:43;6.30;7.80
33903;DHT22;20194;50.950;5.346;2022-11-20T04:03:09;6.20;4.80
33903;DHT22;20194;50.950;5.346;2022-11-20T04:05:34;6.30;4.80
33903;DHT22;20194;50.950;5.346;2022-11-20T04:08:00;6.30;4.40
33903;DHT22;20194;50.950;5.346;2022-11-20T04:10:25;6.40;4.40
33903;DHT22;20194;50.950;5.346;2022-11-20T04:12:51;6.40;4.70
33903;DHT22;20194;50.950;5.346;2022-11-20T04:15:17;6.40;3.80
33903;DHT22;20194;50.950;5.346;2022-11-20T04:17:43;6.50;4.10
33903;DHT22;20194;50.950;5.346;2022-11-20T04:20:09;6.50;3.80
33903;DHT22;20194;50.950;5.346;2022-11-20T04:22:35;6.50;2.50
33903;DHT22;20194;50.950;5.346;2022-11-20T04:25:00;6.50;1.90
33903;DHT22;20194;50.950;5.346;2022-11-20T04:27:26;6.50;2.70
33903;DHT22;20194;50.950;5.346;2022-11-20T04:29:52;6.50;2.30
33903;DHT22;20194;50.950;5.346;2022-11-20T04:32:18;6.40;3.70
33903;DHT22;20194;50.950;5.346;2022-11-20T04:34:43;6.00;10.90
33903;DHT22;20194;50.950;5.346;2022-11-20T04:37:10;6.00;14.80
33903;DHT22;20194;50.950;5.346;2022-11-20T04:39:35;6.10;12.30
33903;DHT22;20194;50.950;5.346;2022-11-20T04:42:01;6.20;11.00
33903;DHT22;20194;50.950;5.346;2022-11-20T04:44:45;6.10;14.10
33903;DHT22;20194;50.950;5.346;2022-11-20T04:47:11;6.10;15.30
33903;DHT22;20194;50.950;5.346;2022-11-20T04:49:36;6.20;14.90
33903;DHT22;20194;50.950;5.346;2022-11-20T04:52:02;6.10;15.50
33903;DHT22;20194;50.950;5.346;2022-11-20T04:54:27;5.90;20.20
33903;DHT22;20194;50.950;5.346;2022-11-20T04:56:53;6.00;20.90
33903;DHT22;20194;50.950;5.346;2022-11-20T04:59:19;6.00;17.70
33903;DHT22;20194;50.950;5.346;2022-11-20T05:01:44;5.60;24.10
33903;DHT22;20194;50.950;5.346;2022-11-20T05:04:10;5.60;28.70
33903;DHT22;20194;50.950;5.346;2022-11-20T05:06:36;5.60;27.70
33903;DHT22;20194;50.950;5.346;2022-11-20T05:09:02;5.90;25.80
33903;DHT22;20194;50.950;5.346;2022-11-20T05:11:28;6.00;23.80
33903;DHT22;20194;50.950;5.346;2022-11-20T05:13:54;6.10;22.40
33903;DHT22;20194;50.950;5.346;2022-11-20T05:16:22;6.10;21.50
33903;DHT22;20194;50.950;5.346;2022-11-20T05:18:49;6.20;20.40
33903;DHT22;20194;50.950;5.346;2022-11-20T05:21:16;6.20;20.30
33903;DHT22;20194;50.950;5.346;2022-11-20T05:23:42;6.30;19.50
33903;DHT22;20194;50.950;5.346;2022-11-20T05:26:21;6.20;18.10
33903;DHT22;20194;50.950;5.346;2022-11-20T05:28:48;6.00;22.10
33903;DHT22;20194;50.950;5.346;2022-11-20T05:31:19;6.10;21.40
33903;DHT22;20194;50.950;5.346;2022-11-20T05:33:45;6.10;22.20
33903;DHT22;20194;50.950;5.346;2022-11-20T05:36:13;6.20;21.20
33903;DHT22;20194;50.950;5.346;2022-11-20T05:38:40;6.20;21.10
33903;DHT22;20194;50.950;5.346;2022-11-20T05:41:11;5.90;24.50
33903;DHT22;20194;50.950;5.346;2022-11-20T05:43:38;5.50;32.70
33903;DHT22;20194;50.950;5.346;2022-11-20T05:46:04;5.40;31.80
33903;DHT22;20194;50.950;5.346;2022-11-20T05:48:30;5.30;33.00
33903;DHT22;20194;50.950;5.346;2022-11-20T05:51:01;5.30;37.50
33903;DHT22;20194;50.950;5.346;2022-11-20T05:53:28;5.20;38.50
33903;DHT22;20194;50.950;5.346;2022-11-20T05:56:01;5.40;36.90
33903;DHT22;20194;50.950;5.346;2022-11-20T05:58:28;5.30;37.50
33903;DHT22;20194;50.950;5.346;2022-11-20T06:00:54;5.30;36.10
33903;DHT22;20194;50.950;5.346;2022-11-20T06:03:20;5.40;36.50
33903;DHT22;20194;50.950;5.346;2022-11-20T06:05:46;5.40;36.40
33903;DHT22;20194;50.950;5.346;2022-11-20T06:08:11;5.60;36.20
33903;DHT22;20194;50.950;5.346;2022-11-20T06:10:37;5.60;33.40
33903;DHT22;20194;50.950;5.346;2022-11-20T06:13:03;5.60;35.70
33903;DHT22;20194;50.950;5.346;2022-11-20T06:15:28;5.80;34.20
33903;DHT22;20194;50.950;5.346;2022-11-20T06:17:55;5.50;31.20
33903;DHT22;20194;50.950;5.346;2022-11-20T06:20:23;5.20;39.20
33903;DHT22;20194;50.950;5.346;2022-11-20T06:22:48;5.20;40.90
33903;DHT22;20194;50.950;5.346;2022-11-20T06:25:14;5.40;39.40
33903;DHT22;20194;50.950;5.346;2022-11-20T06:27:40;5.60;35.90
33903;DHT22;20194;50.950;5.346;2022-11-20T06:30:06;5.80;34.20
33903;DHT22;20194;50.950;5.346;2022-11-20T06:32:32;5.80;31.60
33903;DHT22;20194;50.950;5.346;2022-11-20T06:34:58;5.60;32.60
33903;DHT22;20194;50.950;5.346;2022-11-20T06:37:24;5.30;37.50
33903;DHT22;20194;50.950;5.346;2022-11-20T06:39:50;5.40;37.80
33903;DHT22;20194;50.950;5.346;2022-11-20T06:42:16;5.50;37.90
33903;DHT22;20194;50.950;5.346;2022-11-20T06:44:41;5.70;34.70
33903;DHT22;20194;50.950;5.346;2022-11-20T06:47:07;5.80;34.20
33903;DHT22;20194;50.950;5.346;2022-11-20T06:49:32;5.80;31.90
33903;DHT22;20194;50.950;5.346;2022-11-20T06:51:59;5.90;32.70
33903;DHT22;20194;50.950;5.346;2022-11-20T06:54:25;6.00;31.00
33903;DHT22;20194;50.950;5.346;2022-11-20T06:56:51;5.80;31.90
33903;DHT22;20194;50.950;5.346;2022-11-20T06:59:16;5.80;30.60
33903;DHT22;20194;50.950;5.346;2022-11-20T07:01:42;5.80;30.10
33903;DHT22;20194;50.950;5.346;2022-11-20T07:04:07;5.70;34.30
33903;DHT22;20194;50.950;5.346;2022-11-20T07:06:33;5.80;33.00
33903;DHT22;20194;50.950;5.346;2022-11-20T07:08:59;6.00;31.70
33903;DHT22;20194;50.950;5.346;2022-11-20T07:11:25;6.30;28.90
33903;DHT22;20194;50.950;5.346;2022-11-20T07:13:51;6.30;26.30
33903;DHT22;20194;50.950;5.346;2022-11-20T07:16:16;6.30;26.70
33903;DHT22;20194;50.950;5.346;2022-11-20T07:18:42;6.40;25.20
33903;DHT22;20194;50.950;5.346;2022-11-20T07:21:10;6.40;24.20
33903;DHT22;20194;50.950;5.346;2022-11-20T07:23:36;6.00;28.20
33903;DHT22;20194;50.950;5.346;2022-11-20T07:26:10;6.00;30.30
33903;DHT22;20194;50.950;5.346;2022-11-20T07:28:36;5.70;32.70
33903;DHT22;20194;50.950;5.346;2022-11-20T07:31:02;5.70;34.50
33903;DHT22;20194;50.950;5.346;2022-11-20T07:33:28;5.90;33.30
33903;DHT22;20194;50.950;5.346;2022-11-20T07:35:53;6.10;31.10
33903;DHT22;20194;50.950;5.346;2022-11-20T07:38:19;6.10;29.20
33903;DHT22;20194;50.950;5.346;2022-11-20T07:40:45;6.10;28.00
33903;DHT22;20194;50.950;5.346;2022-11-20T07:43:10;6.00;30.70
33903;DHT22;20194;50.950;5.346;2022-11-20T07:45:36;6.10;30.80
33903;DHT22;20194;50.950;5.346;2022-11-20T07:48:02;6.10;30.90
33903;DHT22;20194;50.950;5.346;2022-11-20T07:50:28;6.20;30.60
33903;DHT22;20194;50.950;5.346;2022-11-20T07:53:04;6.20;29.10
33903;DHT22;20194;50.950;5.346;2022-11-20T07:55:30;5.80;35.20
33903;DHT22;20194;50.950;5.346;2022-11-20T07:57:57;5.70;37.30
33903;DHT22;20194;50.950;5.346;2022-11-20T08:00:24;5.50;41.10
33903;DHT22;20194;50.950;5.346;2022-11-20T08:02:50;5.70;41.70
33903;DHT22;20194;50.950;5.346;2022-11-20T08:05:15;5.60;42.30
33903;DHT22;20194;50.950;5.346;2022-11-20T08:07:42;5.60;40.70
33903;DHT22;20194;50.950;5.346;2022-11-20T08:10:11;5.40;43.00
33903;DHT22;20194;50.950;5.346;2022-11-20T08:12:44;5.20;47.20
33903;DHT22;20194;50.950;5.346;2022-11-20T08:15:30;5.30;46.70
33903;DHT22;20194;50.950;5.346;2022-11-20T08:18:16;5.40;45.70
33903;DHT22;20194;50.950;5.346;2022-11-20T08:20:42;5.30;44.90
33903;DHT22;20194;50.950;5.346;2022-11-20T08:23:08;5.30;46.80
33903;DHT22;20194;50.950;5.346;2022-11-20T08:25:35;5.20;45.70
33903;DHT22;20194;50.950;5.346;2022-11-20T08:28:06;5.30;45.10
33903;DHT22;20194;50.950;5.346;2022-11-20T08:30:32;5.30;45.70
33903;DHT22;20194;50.950;5.346;2022-11-20T08:33:07;5.30;45.60
33903;DHT22;20194;50.950;5.346;2022-11-20T08:35:36;5.30;45.10
33903;DHT22;20194;50.950;5.346;2022-11-20T08:38:04;5.30;44.80
33903;DHT22;20194;50.950;5.346;2022-11-20T08:40:30;5.20;46.30
33903;DHT22;20194;50.950;5.346;2022-11-20T08:42:56;5.20;48.20
33903;DHT22;20194;50.950;5.346;2022-11-20T08:45:21;5.40;48.70
33903;DHT22;20194;50.950;5.346;2022-11-20T08:47:48;5.30;47.40
33903;DHT22;20194;50.950;5.346;2022-11-20T08:50:15;5.30;47.50
33903;DHT22;20194;50.950;5.346;2022-11-20T08:52:41;5.40;50.30
33903;DHT22;20194;50.950;5.346;2022-11-20T08:55:07;5.40;48.70
33903;DHT22;20194;50.950;5.346;2022-11-20T08:57:37;5.50;47.90
33903;DHT22;20194;50.950;5.346;2022-11-20T09:00:05;5.50;46.30
33903;DHT22;20194;50.950;5.346;2022-11-20T09:02:31;5.50;49.00
33903;DHT22;20194;50.950;5.346;2022-11-20T09:04:58;5.70;47.40
33903;DHT22;20194;50.950;5.346;2022-11-20T09:07:23;5.90;47.20
33903;DHT22;20194;50.950;5.346;2022-11-20T09:09:50;5.90;44.30
33903;DHT22;20194;50.950;5.346;2022-11-20T09:12:15;6.10;44.20
33903;DHT22;20194;50.950;5.346;2022-11-20T09:14:41;6.20;41.20
33903;DHT22;20194;50.950;5.346;2022-11-20T09:17:10;6.20;41.80
33903;DHT22;20194;50.950;5.346;2022-11-20T09:19:35;6.00;40.40
33903;DHT22;20194;50.950;5.346;2022-11-20T09:22:01;5.90;44.00
33903;DHT22;20194;50.950;5.346;2022-11-20T09:24:27;6.10;43.70
33903;DHT22;20194;50.950;5.346;2022-11-20T09:26:53;5.90;43.10
33903;DHT22;20194;50.950;5.346;2022-11-20T09:29:19;5.90;44.40
33903;DHT22;20194;50.950;5.346;2022-11-20T09:31:44;5.90;45.00
33903;DHT22;20194;50.950;5.346;2022-11-20T09:34:10;6.10;46.40
33903;DHT22;20194;50.950;5.346;2022-11-20T09:36:36;6.20;44.10
33903;DHT22;20194;50.950;5.346;2022-11-20T09:39:01;6.20;44.80
33903;DHT22;20194;50.950;5.346;2022-11-20T09:52:44;6.60;41.50
33903;DHT22;20194;50.950;5.346;2022-11-20T09:55:14;6.80;40.00
33903;DHT22;20194;50.950;5.346;2022-11-20T09:57:44;6.70;39.90
33903;DHT22;20194;50.950;5.346;2022-11-20T10:00:13;6.80;40.50
33903;DHT22;20194;50.950;5.346;2022-11-20T10:21:11;7.20;42.00
33903;DHT22;20194;50.950;5.346;2022-11-20T10:29:36;7.40;39.10
33903;DHT22;20194;50.950;5.346;2022-11-20T10:32:09;7.00;43.20
33903;DHT22;20194;50.950;5.346;2022-11-20T10:34:54;7.10;46.60
33903;DHT22;20194;50.950;5.346;2022-11-20T10:37:26;7.30;44.50
33903;DHT22;20194;50.950;5.346;2022-11-20T10:42:51;7.40;40.80
33903;DHT22;20194;50.950;5.346;2022-11-20T10:48:07;7.60;40.60
33903;DHT22;20194;50.950;5.346;2022-11-20T10:50:37;7.50;38.60
33903;DHT22;20194;50.950;5.346;2022-11-20T10:56:08;7.30;46.70
33903;DHT22;20194;50.950;5.346;2022-11-20T10:59:03;7.50;45.80
33903;DHT22;20194;50.950;5.346;2022-11-20T11:01:30;7.60;43.90
33903;DHT22;20194;50.950;5.346;2022-11-20T11:03:56;7.80;42.70
33903;DHT22;20194;50.950;5.346;2022-11-20T11:06:42;7.80;41.70
33903;DHT22;20194;50.950;5.346;2022-11-20T11:09:19;7.90;41.80
33903;DHT22;20194;50.950;5.346;2022-11-20T11:11:47;7.90;43.20
33903;DHT22;20194;50.950;5.346;2022-11-20T11:14:15;7.90;43.30
33903;DHT22;20194;50.950;5.346;2022-11-20T11:17:01;7.60;46.80
33903;DHT22;20194;50.950;5.346;2022-11-20T11:19:26;7.70;49.40
33903;DHT22;20194;50.950;5.346;2022-11-20T11:21:54;7.90;47.40
33903;DHT22;20194;50.950;5.346;2022-11-20T11:24:23;7.90;45.20
33903;DHT22;20194;50.950;5.346;2022-11-20T11:26:58;7.90;45.70
33903;DHT22;20194;50.950;5.346;2022-11-20T11:29:25;8.00;45.80
33903;DHT22;20194;50.950;5.346;2022-11-20T11:32:12;8.10;44.50
33903;DHT22;20194;50.950;5.346;2022-11-20T11:34:38;7.90;47.70
33903;DHT22;20194;50.950;5.346;2022-11-20T11:37:05;8.00;47.40
33903;DHT22;20194;50.950;5.346;2022-11-20T11:39:42;8.20;46.90
33903;DHT22;20194;50.950;5.346;2022-11-20T11:42:14;8.20;46.30
33903;DHT22;20194;50.950;5.346;2022-11-20T11:44:44;8.10;47.90
33903;DHT22;20194;50.950;5.346;2022-11-20T11:58:11;8.40;46.20
33903;DHT22;20194;50.950;5.346;2022-11-20T12:00:45;8.50;45.60
33903;DHT22;20194;50.950;5.346;2022-11-20T12:03:24;8.50;44.50
33903;DHT22;20194;50.950;5.346;2022-11-20T12:06:03;8.40;46.80
33903;DHT22;20194;50.950;5.346;2022-11-20T12:09:05;8.60;47.80
33903;DHT22;20194;50.950;5.346;2022-11-20T12:14:21;8.80;45.20
33903;DHT22;20194;50.950;5.346;2022-11-20T12:16:52;9.00;44.80
33903;DHT22;20194;50.950;5.346;2022-11-20T12:19:19;9.00;44.70
33903;DHT22;20194;50.950;5.346;2022-11-20T12:22:01;9.00;45.50
33903;DHT22;20194;50.950;5.346;2022-11-20T12:25:14;9.10;45.70
33903;DHT22;20194;50.950;5.346;2022-11-20T12:27:53;9.10;45.30
33903;DHT22;20194;50.950;5.346;2022-11-20T12:30:22;9.20;45.60
33903;DHT22;20194;50.950;5.346;2022-11-20T12:33:12;9.20;46.10
33903;DHT22;20194;50.950;5.346;2022-11-20T12:51:06;8.90;53.40
33903;DHT22;20194;50.950;5.346;2022-11-20T12:53:29;9.20;50.10
33903;DHT22;20194;50.950;5.346;2022-11-20T13:01:49;9.20;43.50
33903;DHT22;20194;50.950;5.346;2022-11-20T13:06:45;9.20;41.10
33903;DHT22;20194;50.950;5.346;2022-11-20T13:09:16;9.20;41.60
33903;DHT22;20194;50.950;5.346;2022-11-20T13:11:50;9.30;38.20
33903;DHT22;20194;50.950;5.346;2022-11-20T13:14:41;9.30;37.80
33903;DHT22;20194;50.950;5.346;2022-11-20T13:19:52;9.20;36.00
33903;DHT22;20194;50.950;5.346;2022-11-20T13:22:42;9.10;35.70
33903;DHT22;20194;50.950;5.346;2022-11-20T13:25:31;9.10;37.90
33903;DHT22;20194;50.950;5.346;2022-11-20T13:27:57;9.00;40.80
33903;DHT22;20194;50.950;5.346;2022-11-20T13:30:27;9.00;42.80
33903;DHT22;20194;50.950;5.346;2022-11-20T13:36:06;8.80;45.90
33903;DHT22;20194;50.950;5.346;2022-11-20T13:39:00;8.70;50.40
33903;DHT22;20194;50.950;5.346;2022-11-20T13:41:36;8.70;49.90
33903;DHT22;20194;50.950;5.346;2022-11-20T13:46:53;8.50;52.90
33903;DHT22;20194;50.950;5.346;2022-11-20T13:49:39;8.50;53.10
33903;DHT22;20194;50.950;5.346;2022-11-20T14:00:16;8.40;55.60
33903;DHT22;20194;50.950;5.346;2022-11-20T14:02:44;8.40;56.90
33903;DHT22;20194;50.950;5.346;2022-11-20T14:05:20;8.40;56.20
33903;DHT22;20194;50.950;5.346;2022-11-20T14:07:47;8.30;57.00
33903;DHT22;20194;50.950;5.346;2022-11-20T14:10:26;8.30;57.50
33903;DHT22;20194;50.950;5.346;2022-11-20T14:12:52;8.30;57.40
33903;DHT22;20194;50.950;5.346;2022-11-20T14:15:29;8.30;57.80
33903;DHT22;20194;50.950;5.346;2022-11-20T14:17:55;8.30;58.30
33903;DHT22;20194;50.950;5.346;2022-11-20T14:20:24;8.30;58.20
33903;DHT22;20194;50.950;5.346;2022-11-20T14:22:52;8.30;57.90
33903;DHT22;20194;50.950;5.346;2022-11-20T14:27:59;8.20;59.00
33903;DHT22;20194;50.950;5.346;2022-11-20T14:30:27;8.20;58.90
33903;DHT22;20194;50.950;5.346;2022-11-20T14:32:56;8.20;60.10
33903;DHT22;20194;50.950;5.346;2022-11-20T14:35:26;8.10;60.20
33903;DHT22;20194;50.950;5.346;2022-11-20T14:37:53;8.00;60.90
33903;DHT22;20194;50.950;5.346;2022-11-20T14:40:29;8.00;61.30
33903;DHT22;20194;50.950;5.346;2022-11-20T14:42:56;8.00;62.10
33903;DHT22;20194;50.950;5.346;2022-11-20T14:45:24;8.00;62.20
33903;DHT22;20194;50.950;5.346;2022-11-20T14:47:52;7.90;61.90
33903;DHT22;20194;50.950;5.346;2022-11-20T14:50:25;7.90;62.10
33903;DHT22;20194;50.950;5.346;2022-11-20T14:52:56;7.90;62.60
33903;DHT22;20194;50.950;5.346;2022-11-20T14:55:31;7.90;62.80
33903;DHT22;20194;50.950;5.346;2022-11-20T14:58:03;7.90;62.80
33903;DHT22;20194;50.950;5.346;2022-11-20T15:00:30;7.90;62.50
33903;DHT22;20194;50.950;5.346;2022-11-20T15:02:56;7.90;62.50
33903;DHT22;20194;50.950;5.346;2022-11-20T15:05:26;7.80;62.40
33903;DHT22;20194;50.950;5.346;2022-11-20T15:08:12;7.80;62.90
33903;DHT22;20194;50.950;5.346;2022-11-20T15:10:39;7.80;63.50
33903;DHT22;20194;50.950;5.346;2022-11-20T15:13:53;7.80;63.20
33903;DHT22;20194;50.950;5.346;2022-11-20T15:16:29;7.80;63.20
33903;DHT22;20194;50.950;5.346;2022-11-20T15:18:56;7.80;63.80
33903;DHT22;20194;50.950;5.346;2022-11-20T15:21:22;7.80;64.20
33903;DHT22;20194;50.950;5.346;2022-11-20T15:23:48;7.80;64.50
33903;DHT22;20194;50.950;5.346;2022-11-20T15:26:21;7.80;64.60
33903;DHT22;20194;50.950;5.346;2022-11-20T15:28:48;7.80;64.60
33903;DHT22;20194;50.950;5.346;2022-11-20T15:31:17;7.80;64.50
33903;DHT22;20194;50.950;5.346;2022-11-20T15:33:43;7.90;64.80
33903;DHT22;20194;50.950;5.346;2022-11-20T15:36:09;7.90;64.60
33903;DHT22;20194;50.950;5.346;2022-11-20T15:38:36;7.90;64.50
33903;DHT22;20194;50.950;5.346;2022-11-20T15:41:02;7.90;64.60
33903;DHT22;20194;50.950;5.346;2022-11-20T15:43:27;7.90;64.50
33903;DHT22;20194;50.950;5.346;2022-11-20T15:46:06;7.90;64.30
33903;DHT22;20194;50.950;5.346;2022-11-20T15:48:40;7.90;64.80
33903;DHT22;20194;50.950;5.346;2022-11-20T15:53:41;7.90;65.20
33903;DHT22;20194;50.950;5.346;2022-11-20T15:56:11;7.90;65.70
33903;DHT22;20194;50.950;5.346;2022-11-20T15:58:39;7.90;66.40
33903;DHT22;20194;50.950;5.346;2022-11-20T16:01:05;7.90;66.90
33903;DHT22;20194;50.950;5.346;2022-11-20T16:03:30;7.90;67.50
33903;DHT22;20194;50.950;5.346;2022-11-20T16:05:56;7.90;67.90
33903;DHT22;20194;50.950;5.346;2022-11-20T16:08:22;7.90;68.50
33903;DHT22;20194;50.950;5.346;2022-11-20T16:10:47;8.00;68.80
33903;DHT22;20194;50.950;5.346;2022-11-20T16:13:15;8.00;68.90
33903;DHT22;20194;50.950;5.346;2022-11-20T16:16:05;8.00;69.20
33903;DHT22;20194;50.950;5.346;2022-11-20T16:18:32;8.00;69.60
33903;DHT22;20194;50.950;5.346;2022-11-20T16:20:58;8.00;69.90
33903;DHT22;20194;50.950;5.346;2022-11-20T16:23:24;8.10;70.20
33903;DHT22;20194;50.950;5.346;2022-11-20T16:25:50;8.10;70.10
33903;DHT22;20194;50.950;5.346;2022-11-20T16:28:17;8.10;69.60
33903;DHT22;20194;50.950;5.346;2022-11-20T16:30:43;8.20;69.70
33903;DHT22;20194;50.950;5.346;2022-11-20T16:33:14;8.20;69.40
33903;DHT22;20194;50.950;5.346;2022-11-20T16:35:40;8.20;69.10
33903;DHT22;20194;50.950;5.346;2022-11-20T16:38:07;8.20;69.10
33903;DHT22;20194;50.950;5.346;2022-11-20T16:40:33;8.30;69.00
33903;DHT22;20194;50.950;5.346;2022-11-20T16:43:09;8.30;68.90
33903;DHT22;20194;50.950;5.346;2022-11-20T16:45:40;8.40;69.00
33903;DHT22;20194;50.950;5.346;2022-11-20T16:48:06;8.40;68.80
33903;DHT22;20194;50.950;5.346;2022-11-20T16:50:31;8.40;68.50
33903;DHT22;20194;50.950;5.346;2022-11-20T16:52:57;8.40;68.30
33903;DHT22;20194;50.950;5.346;2022-11-20T16:55:23;8.40;68.20
33903;DHT22;20194;50.950;5.346;2022-11-20T16:57:48;8.50;67.90
33903;DHT22;20194;50.950;5.346;2022-11-20T17:00:14;8.60;67.90
33903;DHT22;20194;50.950;5.346;2022-11-20T17:02:40;8.60;67.50
33903;DHT22;20194;50.950;5.346;2022-11-20T17:05:06;8.60;66.90
33903;DHT22;20194;50.950;5.346;2022-11-20T17:07:31;8.60;66.70
33903;DHT22;20194;50.950;5.346;2022-11-20T17:09:57;8.60;66.90
33903;DHT22;20194;50.950;5.346;2022-11-20T17:12:23;8.60;66.70
33903;DHT22;20194;50.950;5.346;2022-11-20T17:14:48;8.70;66.50
33903;DHT22;20194;50.950;5.346;2022-11-20T17:17:15;8.70;66.20
33903;DHT22;20194;50.950;5.346;2022-11-20T17:19:40;8.70;65.80
33903;DHT22;20194;50.950;5.346;2022-11-20T17:22:06;8.70;65.30
33903;DHT22;20194;50.950;5.346;2022-11-20T17:24:32;8.60;65.00
33903;DHT22;20194;50.950;5.346;2022-11-20T17:26:57;8.50;65.00
33903;DHT22;20194;50.950;5.346;2022-11-20T17:29:25;8.60;64.80
33903;DHT22;20194;50.950;5.346;2022-11-20T17:31:50;8.60;64.20
33903;DHT22;20194;50.950;5.346;2022-11-20T17:34:16;8.60;63.90
33903;DHT22;20194;50.950;5.346;2022-11-20T17:36:42;8.60;63.50
33903;DHT22;20194;50.950;5.346;2022-11-20T17:39:18;8.60;62.90
33903;DHT22;20194;50.950;5.346;2022-11-20T17:41:44;8.50;62.70
33903;DHT22;20194;50.950;5.346;2022-11-20T17:44:11;8.50;63.40
33903;DHT22;20194;50.950;5.346;2022-11-20T17:46:37;8.50;63.30